Bookmark and Share
Track history (hours):
 

Albatros

Last reported at 2014-Apr-20 13:34 UTC. Time now 2014-Apr-21 10:13 UTC.
Position N 54°31' E 013°10'.

Length 16 m.

MMSI: 211226200.

NotesDate/timePositionNaut miles runAvg speedWind from/ knotsBaromVisibWave heightAir tempDewpointWater temp
2014-Apr-20 13:34N 54°31' E 013°10'3 3.4
2014-Apr-20 12:33N 54°34' E 013°10'6 6.3
2014-Apr-20 11:34N 54°40' E 013°12'2 1.6
2014-Apr-20 10:34N 54°42' E 013°13'1 0.5
2014-Apr-20 09:34N 54°42' E 013°13'1 1.3
2014-Apr-20 08:23N 54°40' E 013°13'1 0.5
2014-Apr-20 07:24N 54°40' E 013°13'2 2.4
2014-Apr-20 06:34N 54°38' E 013°12'6 5.8
2014-Apr-20 05:34N 54°33' E 013°08'2 2.2
2014-Apr-20 04:34N 54°31' E 013°10'1 0.1
2014-Apr-19 13:33N 54°32' E 013°08'5 5.3
2014-Apr-19 12:34N 54°37' E 013°11'6 6.5
2014-Apr-19 11:33N 54°41' E 013°19'2 2.3
2014-Apr-19 10:33N 54°42' E 013°23'0 0.1
2014-Apr-19 09:33N 54°42' E 013°23'0 0.2
2014-Apr-19 08:33N 54°42' E 013°23'7 6.5
2014-Apr-19 07:33N 54°42' E 013°11'3 3.0
2014-Apr-19 06:33N 54°39' E 013°10'6 5.8
2014-Apr-19 05:33N 54°33' E 013°08'2 0.2
2014-Apr-18 14:33N 54°31' E 013°10'6 5.6
2014-Apr-18 13:33N 54°36' E 013°11'7 6.8
2014-Apr-18 12:33N 54°41' E 013°20'2 1.9
2014-Apr-18 11:33N 54°42' E 013°23'0 0.1
2014-Apr-18 10:33N 54°42' E 013°23'0 0.3
2014-Apr-18 09:33N 54°42' E 013°23'3 3.3
2014-Apr-18 08:33N 54°42' E 013°18'4 4.2
2014-Apr-18 07:33N 54°41' E 013°10'5 4.6
2014-Apr-18 06:33N 54°37' E 013°10'5 5.4
2014-Apr-18 05:33N 54°32' E 013°08'1 0.1
2014-Apr-17 13:33N 54°31' E 013°09'5 4.6
2014-Apr-17 12:33N 54°36' E 013°10'5 5.4
2014-Apr-17 11:33N 54°41' E 013°12'1 0.8
2014-Apr-17 10:33N 54°42' E 013°13'0 0.4
2014-Apr-17 09:33N 54°42' E 013°12'1 0.5
2014-Apr-17 08:33N 54°42' E 013°11'0 0.4
2014-Apr-17 07:33N 54°41' E 013°11'3 3.3
2014-Apr-17 06:33N 54°38' E 013°11'6 6.1
2014-Apr-17 05:33N 54°32' E 013°08'2 0.1
2014-Apr-16 13:33N 54°31' E 013°10'5 4.8
2014-Apr-16 12:33N 54°36' E 013°11'6 6.2
2014-Apr-16 11:33N 54°42' E 013°13'0 0.1
2014-Apr-16 10:33N 54°42' E 013°13'0 0.2
2014-Apr-16 09:32N 54°42' E 013°12'1 1.1
2014-Apr-16 08:33N 54°41' E 013°10'0 0.2
2014-Apr-16 07:33N 54°41' E 013°11'2 1.9
2014-Apr-16 06:31N 54°39' E 013°11'6 6.6
2014-Apr-16 05:33N 54°33' E 013°09'3 0.1
2014-Apr-14 07:33N 54°31' E 013°10'0 0.0
2014-Apr-12 13:29N 54°31' E 013°10'4 4.4
2014-Apr-12 12:33N 54°35' E 013°10'7 6.7
2014-Apr-12 11:33N 54°41' E 013°13'0 0.5
2014-Apr-12 10:33N 54°42' E 013°13'0 0.3
2014-Apr-12 09:33N 54°42' E 013°12'1 0.6
2014-Apr-12 08:33N 54°42' E 013°11'0 0.4
2014-Apr-12 07:33N 54°41' E 013°10'5 5.3
2014-Apr-12 06:33N 54°36' E 013°10'5 5.0
2014-Apr-12 05:33N 54°32' E 013°08'1 0.1
2014-Apr-11 13:26N 54°31' E 013°10'4 4.4
2014-Apr-11 12:34N 54°35' E 013°10'7 6.8
2014-Apr-11 11:34N 54°41' E 013°13'1 0.5
2014-Apr-11 10:33N 54°42' E 013°13'1 1.1
2014-Apr-11 09:33N 54°41' E 013°11'0 0.1
2014-Apr-11 08:34N 54°41' E 013°10'0 0.2
2014-Apr-11 07:33N 54°42' E 013°11'4 4.2
2014-Apr-11 06:34N 54°37' E 013°11'6 5.9
2014-Apr-11 05:34N 54°32' E 013°08'2 1.5
2014-Apr-11 04:34N 54°31' E 013°10'  

Dump ship's entire track history

sailing weather and tide predictions

Albatros — DITX — position and weather